sensor_id;sensor_type;location;lat;lon;timestamp;P1;durP1;ratioP1;P2;durP2;ratioP2
30173;SDS011;16985;50.814;8.530;2023-07-22T00:00:45;7.07;;;5.18;;
30173;SDS011;16985;50.814;8.530;2023-07-22T00:03:11;9.20;;;6.00;;
30173;SDS011;16985;50.814;8.530;2023-07-22T00:05:37;8.43;;;5.65;;
30173;SDS011;16985;50.814;8.530;2023-07-22T00:08:04;7.30;;;5.53;;
30173;SDS011;16985;50.814;8.530;2023-07-22T00:10:31;7.85;;;5.32;;
30173;SDS011;16985;50.814;8.530;2023-07-22T00:12:56;9.20;;;6.10;;
30173;SDS011;16985;50.814;8.530;2023-07-22T00:15:22;7.10;;;5.45;;
30173;SDS011;16985;50.814;8.530;2023-07-22T00:17:50;10.40;;;6.73;;
30173;SDS011;16985;50.814;8.530;2023-07-22T00:20:16;11.10;;;5.55;;
30173;SDS011;16985;50.814;8.530;2023-07-22T00:22:43;8.98;;;6.63;;
30173;SDS011;16985;50.814;8.530;2023-07-22T00:25:09;15.80;;;5.90;;
30173;SDS011;16985;50.814;8.530;2023-07-22T00:27:39;7.18;;;5.65;;
30173;SDS011;16985;50.814;8.530;2023-07-22T00:30:07;9.70;;;6.68;;
30173;SDS011;16985;50.814;8.530;2023-07-22T00:32:34;8.15;;;5.30;;
30173;SDS011;16985;50.814;8.530;2023-07-22T00:35:03;7.00;;;5.65;;
30173;SDS011;16985;50.814;8.530;2023-07-22T00:37:34;9.63;;;6.10;;
30173;SDS011;16985;50.814;8.530;2023-07-22T00:40:03;10.02;;;6.00;;
30173;SDS011;16985;50.814;8.530;2023-07-22T00:42:31;7.80;;;5.97;;
30173;SDS011;16985;50.814;8.530;2023-07-22T00:44:57;9.75;;;6.05;;
30173;SDS011;16985;50.814;8.530;2023-07-22T00:47:23;8.80;;;5.88;;
30173;SDS011;16985;50.814;8.530;2023-07-22T00:49:49;7.97;;;5.55;;
30173;SDS011;16985;50.814;8.530;2023-07-22T00:52:15;10.55;;;6.78;;
30173;SDS011;16985;50.814;8.530;2023-07-22T00:54:42;10.20;;;6.55;;
30173;SDS011;16985;50.814;8.530;2023-07-22T00:57:09;8.27;;;5.88;;
30173;SDS011;16985;50.814;8.530;2023-07-22T00:59:37;12.77;;;7.27;;
30173;SDS011;16985;50.814;8.530;2023-07-22T01:02:04;9.10;;;6.90;;
30173;SDS011;16985;50.814;8.530;2023-07-22T01:04:32;9.35;;;6.07;;
30173;SDS011;16985;50.814;8.530;2023-07-22T01:06:59;10.43;;;7.18;;
30173;SDS011;16985;50.814;8.530;2023-07-22T01:09:40;13.35;;;7.00;;
30173;SDS011;16985;50.814;8.530;2023-07-22T01:12:07;10.27;;;6.47;;
30173;SDS011;16985;50.814;8.530;2023-07-22T01:14:34;11.93;;;7.07;;
30173;SDS011;16985;50.814;8.530;2023-07-22T01:17:05;12.35;;;6.90;;
30173;SDS011;16985;50.814;8.530;2023-07-22T01:19:33;10.77;;;6.75;;
30173;SDS011;16985;50.814;8.530;2023-07-22T01:22:00;8.23;;;6.38;;
30173;SDS011;16985;50.814;8.530;2023-07-22T01:24:29;13.43;;;7.35;;
30173;SDS011;16985;50.814;8.530;2023-07-22T01:26:55;11.68;;;6.72;;
30173;SDS011;16985;50.814;8.530;2023-07-22T01:29:25;10.60;;;7.22;;
30173;SDS011;16985;50.814;8.530;2023-07-22T01:31:53;10.02;;;6.55;;
30173;SDS011;16985;50.814;8.530;2023-07-22T01:34:21;11.48;;;7.25;;
30173;SDS011;16985;50.814;8.530;2023-07-22T01:36:49;9.32;;;6.43;;
30173;SDS011;16985;50.814;8.530;2023-07-22T01:39:16;10.63;;;6.30;;
30173;SDS011;16985;50.814;8.530;2023-07-22T01:41:43;10.07;;;6.18;;
30173;SDS011;16985;50.814;8.530;2023-07-22T01:44:09;9.60;;;6.30;;
30173;SDS011;16985;50.814;8.530;2023-07-22T01:46:36;10.45;;;6.93;;
30173;SDS011;16985;50.814;8.530;2023-07-22T01:49:03;11.23;;;6.88;;
30173;SDS011;16985;50.814;8.530;2023-07-22T01:51:31;13.55;;;6.80;;
30173;SDS011;16985;50.814;8.530;2023-07-22T01:53:57;8.77;;;6.25;;
30173;SDS011;16985;50.814;8.530;2023-07-22T01:56:23;13.07;;;7.05;;
30173;SDS011;16985;50.814;8.530;2023-07-22T01:58:50;11.55;;;6.57;;
30173;SDS011;16985;50.814;8.530;2023-07-22T02:01:15;11.10;;;6.80;;
30173;SDS011;16985;50.814;8.530;2023-07-22T02:03:44;11.30;;;7.03;;
30173;SDS011;16985;50.814;8.530;2023-07-22T02:06:11;10.25;;;6.80;;
30173;SDS011;16985;50.814;8.530;2023-07-22T02:08:37;10.70;;;6.57;;
30173;SDS011;16985;50.814;8.530;2023-07-22T02:11:04;12.25;;;7.88;;
30173;SDS011;16985;50.814;8.530;2023-07-22T02:13:33;8.80;;;6.68;;
30173;SDS011;16985;50.814;8.530;2023-07-22T02:16:00;7.80;;;6.47;;
30173;SDS011;16985;50.814;8.530;2023-07-22T02:18:26;9.38;;;6.50;;
30173;SDS011;16985;50.814;8.530;2023-07-22T02:20:53;10.85;;;6.93;;
30173;SDS011;16985;50.814;8.530;2023-07-22T02:23:20;11.38;;;6.50;;
30173;SDS011;16985;50.814;8.530;2023-07-22T02:25:50;14.30;;;6.97;;
30173;SDS011;16985;50.814;8.530;2023-07-22T02:28:17;16.63;;;8.00;;
30173;SDS011;16985;50.814;8.530;2023-07-22T02:30:48;11.27;;;7.72;;
30173;SDS011;16985;50.814;8.530;2023-07-22T02:33:17;13.15;;;7.30;;
30173;SDS011;16985;50.814;8.530;2023-07-22T02:35:44;10.07;;;6.50;;
30173;SDS011;16985;50.814;8.530;2023-07-22T02:38:11;16.25;;;7.55;;
30173;SDS011;16985;50.814;8.530;2023-07-22T02:40:39;8.70;;;6.90;;
30173;SDS011;16985;50.814;8.530;2023-07-22T02:43:05;11.05;;;7.20;;
30173;SDS011;16985;50.814;8.530;2023-07-22T02:45:32;8.05;;;6.65;;
30173;SDS011;16985;50.814;8.530;2023-07-22T02:47:58;9.18;;;6.18;;
30173;SDS011;16985;50.814;8.530;2023-07-22T02:50:24;9.05;;;6.63;;
30173;SDS011;16985;50.814;8.530;2023-07-22T02:52:50;9.82;;;6.68;;
30173;SDS011;16985;50.814;8.530;2023-07-22T02:55:17;9.02;;;6.53;;
30173;SDS011;16985;50.814;8.530;2023-07-22T02:57:47;12.23;;;6.20;;
30173;SDS011;16985;50.814;8.530;2023-07-22T03:00:13;11.60;;;7.45;;
30173;SDS011;16985;50.814;8.530;2023-07-22T03:02:57;14.77;;;7.68;;
30173;SDS011;16985;50.814;8.530;2023-07-22T03:05:29;11.32;;;7.15;;
30173;SDS011;16985;50.814;8.530;2023-07-22T03:07:55;13.10;;;6.30;;
30173;SDS011;16985;50.814;8.530;2023-07-22T03:10:22;10.07;;;6.40;;
30173;SDS011;16985;50.814;8.530;2023-07-22T03:12:50;9.40;;;6.18;;
30173;SDS011;16985;50.814;8.530;2023-07-22T03:15:20;11.05;;;6.70;;
30173;SDS011;16985;50.814;8.530;2023-07-22T03:17:47;7.88;;;6.35;;
30173;SDS011;16985;50.814;8.530;2023-07-22T03:20:14;8.98;;;6.65;;
30173;SDS011;16985;50.814;8.530;2023-07-22T03:22:42;11.82;;;6.57;;
30173;SDS011;16985;50.814;8.530;2023-07-22T03:25:09;10.10;;;6.55;;
30173;SDS011;16985;50.814;8.530;2023-07-22T03:27:39;9.90;;;6.30;;
30173;SDS011;16985;50.814;8.530;2023-07-22T03:30:06;12.77;;;6.30;;
30173;SDS011;16985;50.814;8.530;2023-07-22T03:32:33;11.10;;;6.55;;
30173;SDS011;16985;50.814;8.530;2023-07-22T03:35:00;11.18;;;6.38;;
30173;SDS011;16985;50.814;8.530;2023-07-22T03:37:27;13.30;;;6.80;;
30173;SDS011;16985;50.814;8.530;2023-07-22T03:39:53;8.63;;;6.22;;
30173;SDS011;16985;50.814;8.530;2023-07-22T03:42:19;9.27;;;6.53;;
30173;SDS011;16985;50.814;8.530;2023-07-22T03:44:45;9.23;;;6.82;;
30173;SDS011;16985;50.814;8.530;2023-07-22T03:47:11;9.82;;;5.95;;
30173;SDS011;16985;50.814;8.530;2023-07-22T03:49:37;12.52;;;6.88;;
30173;SDS011;16985;50.814;8.530;2023-07-22T03:52:03;8.75;;;6.22;;
30173;SDS011;16985;50.814;8.530;2023-07-22T03:54:29;8.40;;;6.20;;
30173;SDS011;16985;50.814;8.530;2023-07-22T03:56:55;9.45;;;6.03;;
30173;SDS011;16985;50.814;8.530;2023-07-22T03:59:20;8.10;;;5.82;;
30173;SDS011;16985;50.814;8.530;2023-07-22T04:01:46;8.20;;;6.35;;
30173;SDS011;16985;50.814;8.530;2023-07-22T04:04:12;8.48;;;6.70;;
30173;SDS011;16985;50.814;8.530;2023-07-22T04:06:38;11.15;;;5.95;;
30173;SDS011;16985;50.814;8.530;2023-07-22T04:09:04;9.95;;;6.82;;
30173;SDS011;16985;50.814;8.530;2023-07-22T04:11:30;10.70;;;6.95;;
30173;SDS011;16985;50.814;8.530;2023-07-22T04:13:56;12.38;;;6.95;;
30173;SDS011;16985;50.814;8.530;2023-07-22T04:16:23;8.65;;;6.25;;
30173;SDS011;16985;50.814;8.530;2023-07-22T04:18:49;8.82;;;6.60;;
30173;SDS011;16985;50.814;8.530;2023-07-22T04:21:14;10.48;;;6.88;;
30173;SDS011;16985;50.814;8.530;2023-07-22T04:23:40;9.77;;;6.20;;
30173;SDS011;16985;50.814;8.530;2023-07-22T04:26:06;8.27;;;6.35;;
30173;SDS011;16985;50.814;8.530;2023-07-22T04:31:00;8.88;;;5.80;;
30173;SDS011;16985;50.814;8.530;2023-07-22T04:33:26;10.05;;;6.50;;
30173;SDS011;16985;50.814;8.530;2023-07-22T04:35:53;8.63;;;5.70;;
30173;SDS011;16985;50.814;8.530;2023-07-22T04:38:23;7.50;;;5.25;;
30173;SDS011;16985;50.814;8.530;2023-07-22T04:40:49;8.93;;;5.43;;
30173;SDS011;16985;50.814;8.530;2023-07-22T04:43:15;10.15;;;6.15;;
30173;SDS011;16985;50.814;8.530;2023-07-22T04:45:44;8.40;;;4.97;;
30173;SDS011;16985;50.814;8.530;2023-07-22T04:48:13;8.20;;;5.82;;
30173;SDS011;16985;50.814;8.530;2023-07-22T04:50:45;8.98;;;6.60;;
30173;SDS011;16985;50.814;8.530;2023-07-22T04:53:11;12.93;;;6.47;;
30173;SDS011;16985;50.814;8.530;2023-07-22T04:55:38;7.82;;;5.72;;
30173;SDS011;16985;50.814;8.530;2023-07-22T04:58:05;8.00;;;6.00;;
30173;SDS011;16985;50.814;8.530;2023-07-22T05:00:31;8.15;;;5.82;;
30173;SDS011;16985;50.814;8.530;2023-07-22T05:02:58;8.07;;;5.88;;
30173;SDS011;16985;50.814;8.530;2023-07-22T05:05:25;7.35;;;5.40;;
30173;SDS011;16985;50.814;8.530;2023-07-22T05:07:51;6.95;;;5.38;;
30173;SDS011;16985;50.814;8.530;2023-07-22T05:10:18;8.15;;;6.88;;
30173;SDS011;16985;50.814;8.530;2023-07-22T05:12:44;7.97;;;6.18;;
30173;SDS011;16985;50.814;8.530;2023-07-22T05:15:11;10.15;;;6.75;;
30173;SDS011;16985;50.814;8.530;2023-07-22T05:17:38;16.55;;;6.88;;
30173;SDS011;16985;50.814;8.530;2023-07-22T05:20:04;8.27;;;6.68;;
30173;SDS011;16985;50.814;8.530;2023-07-22T05:22:34;12.60;;;7.30;;
30173;SDS011;16985;50.814;8.530;2023-07-22T05:25:00;10.85;;;6.80;;
30173;SDS011;16985;50.814;8.530;2023-07-22T05:27:26;11.20;;;7.32;;
30173;SDS011;16985;50.814;8.530;2023-07-22T05:29:51;13.52;;;9.20;;
30173;SDS011;16985;50.814;8.530;2023-07-22T05:32:17;13.90;;;8.50;;
30173;SDS011;16985;50.814;8.530;2023-07-22T05:34:43;13.45;;;8.43;;
30173;SDS011;16985;50.814;8.530;2023-07-22T05:37:09;13.40;;;9.57;;
30173;SDS011;16985;50.814;8.530;2023-07-22T05:39:35;16.60;;;8.13;;
30173;SDS011;16985;50.814;8.530;2023-07-22T05:42:00;11.85;;;7.63;;
30173;SDS011;16985;50.814;8.530;2023-07-22T05:44:26;11.80;;;7.93;;
30173;SDS011;16985;50.814;8.530;2023-07-22T05:46:52;9.70;;;7.32;;
30173;SDS011;16985;50.814;8.530;2023-07-22T05:49:18;11.48;;;8.00;;
30173;SDS011;16985;50.814;8.530;2023-07-22T05:51:43;16.85;;;7.32;;
30173;SDS011;16985;50.814;8.530;2023-07-22T05:54:09;10.63;;;6.90;;
30173;SDS011;16985;50.814;8.530;2023-07-22T05:56:35;13.90;;;8.05;;
30173;SDS011;16985;50.814;8.530;2023-07-22T05:59:01;13.27;;;8.82;;
30173;SDS011;16985;50.814;8.530;2023-07-22T06:01:27;11.73;;;7.25;;
30173;SDS011;16985;50.814;8.530;2023-07-22T06:03:52;14.80;;;7.63;;
30173;SDS011;16985;50.814;8.530;2023-07-22T06:06:18;14.85;;;9.23;;
30173;SDS011;16985;50.814;8.530;2023-07-22T06:08:44;12.25;;;8.35;;
30173;SDS011;16985;50.814;8.530;2023-07-22T06:11:10;14.02;;;8.70;;
30173;SDS011;16985;50.814;8.530;2023-07-22T06:13:36;14.57;;;9.60;;
30173;SDS011;16985;50.814;8.530;2023-07-22T06:16:02;15.13;;;8.57;;
30173;SDS011;16985;50.814;8.530;2023-07-22T06:18:28;12.90;;;8.30;;
30173;SDS011;16985;50.814;8.530;2023-07-22T06:20:54;17.17;;;9.20;;
30173;SDS011;16985;50.814;8.530;2023-07-22T06:23:20;11.77;;;8.70;;
30173;SDS011;16985;50.814;8.530;2023-07-22T06:25:46;13.73;;;9.05;;
30173;SDS011;16985;50.814;8.530;2023-07-22T06:28:11;10.75;;;8.02;;
30173;SDS011;16985;50.814;8.530;2023-07-22T06:30:37;16.40;;;8.50;;
30173;SDS011;16985;50.814;8.530;2023-07-22T06:33:03;13.50;;;9.15;;
30173;SDS011;16985;50.814;8.530;2023-07-22T06:35:29;17.63;;;9.50;;
30173;SDS011;16985;50.814;8.530;2023-07-22T06:37:54;13.65;;;8.57;;
30173;SDS011;16985;50.814;8.530;2023-07-22T06:40:20;13.25;;;8.38;;
30173;SDS011;16985;50.814;8.530;2023-07-22T06:42:46;15.05;;;8.43;;
30173;SDS011;16985;50.814;8.530;2023-07-22T06:45:12;12.65;;;8.18;;
30173;SDS011;16985;50.814;8.530;2023-07-22T06:47:38;14.98;;;8.80;;
30173;SDS011;16985;50.814;8.530;2023-07-22T06:50:03;14.43;;;9.88;;
30173;SDS011;16985;50.814;8.530;2023-07-22T06:52:30;14.50;;;8.82;;
30173;SDS011;16985;50.814;8.530;2023-07-22T06:54:57;13.27;;;9.35;;
30173;SDS011;16985;50.814;8.530;2023-07-22T06:57:22;13.68;;;8.80;;
30173;SDS011;16985;50.814;8.530;2023-07-22T06:59:51;15.93;;;10.07;;
30173;SDS011;16985;50.814;8.530;2023-07-22T07:02:20;16.30;;;9.18;;
30173;SDS011;16985;50.814;8.530;2023-07-22T07:04:47;14.20;;;9.57;;
30173;SDS011;16985;50.814;8.530;2023-07-22T07:07:13;21.13;;;9.90;;
30173;SDS011;16985;50.814;8.530;2023-07-22T07:09:40;15.88;;;10.05;;
30173;SDS011;16985;50.814;8.530;2023-07-22T07:12:06;16.45;;;9.18;;
30173;SDS011;16985;50.814;8.530;2023-07-22T07:14:33;15.07;;;8.32;;
30173;SDS011;16985;50.814;8.530;2023-07-22T07:17:00;14.88;;;9.45;;
30173;SDS011;16985;50.814;8.530;2023-07-22T07:19:26;13.70;;;8.10;;
30173;SDS011;16985;50.814;8.530;2023-07-22T07:21:53;13.23;;;7.93;;
30173;SDS011;16985;50.814;8.530;2023-07-22T07:24:19;13.88;;;8.15;;
30173;SDS011;16985;50.814;8.530;2023-07-22T07:26:45;12.20;;;7.60;;
30173;SDS011;16985;50.814;8.530;2023-07-22T07:29:11;11.95;;;7.53;;
30173;SDS011;16985;50.814;8.530;2023-07-22T07:31:37;10.23;;;6.68;;
30173;SDS011;16985;50.814;8.530;2023-07-22T07:34:03;12.23;;;7.68;;
30173;SDS011;16985;50.814;8.530;2023-07-22T07:36:29;11.52;;;7.03;;
30173;SDS011;16985;50.814;8.530;2023-07-22T07:38:57;11.02;;;6.93;;
30173;SDS011;16985;50.814;8.530;2023-07-22T07:41:22;11.60;;;7.45;;
30173;SDS011;16985;50.814;8.530;2023-07-22T07:43:48;9.65;;;7.20;;
30173;SDS011;16985;50.814;8.530;2023-07-22T07:48:50;12.07;;;7.15;;
30173;SDS011;16985;50.814;8.530;2023-07-22T07:51:18;11.10;;;6.95;;
30173;SDS011;16985;50.814;8.530;2023-07-22T07:53:46;9.02;;;7.10;;
30173;SDS011;16985;50.814;8.530;2023-07-22T07:56:12;10.77;;;6.22;;
30173;SDS011;16985;50.814;8.530;2023-07-22T07:58:39;8.88;;;6.50;;
30173;SDS011;16985;50.814;8.530;2023-07-22T08:01:05;10.20;;;6.70;;
30173;SDS011;16985;50.814;8.530;2023-07-22T08:03:32;8.45;;;6.60;;
30173;SDS011;16985;50.814;8.530;2023-07-22T08:08:28;9.45;;;6.88;;
30173;SDS011;16985;50.814;8.530;2023-07-22T08:10:58;10.02;;;6.75;;
30173;SDS011;16985;50.814;8.530;2023-07-22T08:13:29;9.57;;;6.75;;
30173;SDS011;16985;50.814;8.530;2023-07-22T08:16:09;8.68;;;6.38;;
30173;SDS011;16985;50.814;8.530;2023-07-22T08:18:37;8.95;;;6.80;;
30173;SDS011;16985;50.814;8.530;2023-07-22T08:21:03;11.13;;;7.10;;
30173;SDS011;16985;50.814;8.530;2023-07-22T08:23:34;8.85;;;6.25;;
30173;SDS011;16985;50.814;8.530;2023-07-22T08:26:01;8.50;;;6.43;;
30173;SDS011;16985;50.814;8.530;2023-07-22T08:28:30;8.80;;;6.05;;
30173;SDS011;16985;50.814;8.530;2023-07-22T08:30:57;8.60;;;6.53;;
30173;SDS011;16985;50.814;8.530;2023-07-22T08:33:23;8.77;;;6.28;;
30173;SDS011;16985;50.814;8.530;2023-07-22T08:35:52;10.18;;;6.50;;
30173;SDS011;16985;50.814;8.530;2023-07-22T08:38:18;10.48;;;6.55;;
30173;SDS011;16985;50.814;8.530;2023-07-22T08:40:44;10.65;;;6.22;;
30173;SDS011;16985;50.814;8.530;2023-07-22T08:43:14;10.15;;;6.35;;
30173;SDS011;16985;50.814;8.530;2023-07-22T08:45:40;9.95;;;6.60;;
30173;SDS011;16985;50.814;8.530;2023-07-22T08:48:08;11.70;;;5.97;;
30173;SDS011;16985;50.814;8.530;2023-07-22T08:53:12;10.43;;;5.90;;
30173;SDS011;16985;50.814;8.530;2023-07-22T08:55:39;11.40;;;5.85;;
30173;SDS011;16985;50.814;8.530;2023-07-22T08:58:09;8.98;;;6.30;;
30173;SDS011;16985;50.814;8.530;2023-07-22T09:00:36;10.50;;;5.70;;
30173;SDS011;16985;50.814;8.530;2023-07-22T09:03:03;8.15;;;5.57;;
30173;SDS011;16985;50.814;8.530;2023-07-22T09:05:31;7.88;;;6.03;;
30173;SDS011;16985;50.814;8.530;2023-07-22T09:07:58;8.02;;;6.05;;
30173;SDS011;16985;50.814;8.530;2023-07-22T09:10:28;10.68;;;6.20;;
30173;SDS011;16985;50.814;8.530;2023-07-22T09:12:55;9.63;;;5.65;;
30173;SDS011;16985;50.814;8.530;2023-07-22T09:15:22;6.05;;;5.35;;
30173;SDS011;16985;50.814;8.530;2023-07-22T09:17:48;6.35;;;5.38;;
30173;SDS011;16985;50.814;8.530;2023-07-22T09:20:15;9.00;;;5.88;;
30173;SDS011;16985;50.814;8.530;2023-07-22T09:22:49;8.13;;;5.72;;
30173;SDS011;16985;50.814;8.530;2023-07-22T09:25:26;6.93;;;5.18;;
30173;SDS011;16985;50.814;8.530;2023-07-22T09:27:53;7.47;;;5.53;;
30173;SDS011;16985;50.814;8.530;2023-07-22T09:30:35;7.90;;;5.47;;
30173;SDS011;16985;50.814;8.530;2023-07-22T09:33:04;7.57;;;5.63;;
30173;SDS011;16985;50.814;8.530;2023-07-22T09:35:43;7.13;;;5.20;;
30173;SDS011;16985;50.814;8.530;2023-07-22T09:38:11;6.13;;;4.88;;
30173;SDS011;16985;50.814;8.530;2023-07-22T09:40:38;11.98;;;5.40;;
30173;SDS011;16985;50.814;8.530;2023-07-22T09:43:08;8.05;;;5.40;;
30173;SDS011;16985;50.814;8.530;2023-07-22T09:45:37;7.45;;;5.18;;
30173;SDS011;16985;50.814;8.530;2023-07-22T09:48:03;8.18;;;5.30;;
30173;SDS011;16985;50.814;8.530;2023-07-22T09:50:30;6.95;;;5.35;;
30173;SDS011;16985;50.814;8.530;2023-07-22T09:52:57;6.82;;;5.10;;
30173;SDS011;16985;50.814;8.530;2023-07-22T09:55:27;7.45;;;5.25;;
30173;SDS011;16985;50.814;8.530;2023-07-22T09:57:56;8.50;;;5.05;;
30173;SDS011;16985;50.814;8.530;2023-07-22T10:00:24;6.75;;;5.15;;
30173;SDS011;16985;50.814;8.530;2023-07-22T10:02:55;5.20;;;4.22;;
30173;SDS011;16985;50.814;8.530;2023-07-22T10:05:23;6.15;;;5.05;;
30173;SDS011;16985;50.814;8.530;2023-07-22T10:07:52;5.80;;;4.20;;
30173;SDS011;16985;50.814;8.530;2023-07-22T10:10:23;7.45;;;4.30;;
30173;SDS011;16985;50.814;8.530;2023-07-22T10:12:59;6.15;;;4.55;;
30173;SDS011;16985;50.814;8.530;2023-07-22T10:15:27;8.55;;;4.97;;
30173;SDS011;16985;50.814;8.530;2023-07-22T10:17:56;5.90;;;3.53;;
30173;SDS011;16985;50.814;8.530;2023-07-22T10:20:22;5.03;;;4.30;;
30173;SDS011;16985;50.814;8.530;2023-07-22T10:22:49;6.43;;;4.22;;
30173;SDS011;16985;50.814;8.530;2023-07-22T10:25:16;8.48;;;4.82;;
30173;SDS011;16985;50.814;8.530;2023-07-22T10:27:44;7.15;;;4.13;;
30173;SDS011;16985;50.814;8.530;2023-07-22T10:30:12;6.32;;;4.97;;
30173;SDS011;16985;50.814;8.530;2023-07-22T10:32:57;4.68;;;3.92;;
30173;SDS011;16985;50.814;8.530;2023-07-22T10:38:10;5.18;;;3.83;;
30173;SDS011;16985;50.814;8.530;2023-07-22T10:40:57;3.45;;;3.10;;
30173;SDS011;16985;50.814;8.530;2023-07-22T10:43:25;5.07;;;3.70;;
30173;SDS011;16985;50.814;8.530;2023-07-22T10:45:55;5.93;;;3.40;;
30173;SDS011;16985;50.814;8.530;2023-07-22T10:48:27;3.20;;;2.90;;
30173;SDS011;16985;50.814;8.530;2023-07-22T10:51:08;5.78;;;3.30;;
30173;SDS011;16985;50.814;8.530;2023-07-22T10:53:44;3.53;;;3.23;;
30173;SDS011;16985;50.814;8.530;2023-07-22T11:06:55;4.57;;;2.83;;
30173;SDS011;16985;50.814;8.530;2023-07-22T11:14:31;3.72;;;3.17;;
30173;SDS011;16985;50.814;8.530;2023-07-22T11:17:29;3.95;;;3.17;;
30173;SDS011;16985;50.814;8.530;2023-07-22T11:19:57;5.88;;;3.05;;
30173;SDS011;16985;50.814;8.530;2023-07-22T11:22:24;6.72;;;2.83;;
30173;SDS011;16985;50.814;8.530;2023-07-22T11:24:50;3.97;;;3.00;;
30173;SDS011;16985;50.814;8.530;2023-07-22T11:27:15;8.40;;;3.60;;
30173;SDS011;16985;50.814;8.530;2023-07-22T11:29:41;3.10;;;2.60;;
30173;SDS011;16985;50.814;8.530;2023-07-22T11:32:14;6.22;;;3.15;;
30173;SDS011;16985;50.814;8.530;2023-07-22T11:34:41;5.00;;;3.10;;
30173;SDS011;16985;50.814;8.530;2023-07-22T11:39:35;4.90;;;3.42;;
30173;SDS011;16985;50.814;8.530;2023-07-22T11:42:03;5.25;;;2.83;;
30173;SDS011;16985;50.814;8.530;2023-07-22T11:44:29;4.95;;;2.97;;
30173;SDS011;16985;50.814;8.530;2023-07-22T11:47:00;4.15;;;3.13;;
30173;SDS011;16985;50.814;8.530;2023-07-22T11:49:36;7.10;;;3.00;;
30173;SDS011;16985;50.814;8.530;2023-07-22T11:52:10;4.25;;;2.50;;
30173;SDS011;16985;50.814;8.530;2023-07-22T11:54:41;4.85;;;2.40;;
30173;SDS011;16985;50.814;8.530;2023-07-22T11:57:13;4.97;;;2.10;;
30173;SDS011;16985;50.814;8.530;2023-07-22T11:59:49;3.88;;;2.40;;
30173;SDS011;16985;50.814;8.530;2023-07-22T12:02:17;5.65;;;2.47;;
30173;SDS011;16985;50.814;8.530;2023-07-22T12:07:26;3.85;;;2.83;;
30173;SDS011;16985;50.814;8.530;2023-07-22T12:09:54;2.13;;;1.85;;
30173;SDS011;16985;50.814;8.530;2023-07-22T12:12:35;3.47;;;2.40;;
30173;SDS011;16985;50.814;8.530;2023-07-22T12:15:04;4.38;;;2.15;;
30173;SDS011;16985;50.814;8.530;2023-07-22T12:17:48;3.17;;;2.45;;
30173;SDS011;16985;50.814;8.530;2023-07-22T12:20:23;4.55;;;2.10;;
30173;SDS011;16985;50.814;8.530;2023-07-22T12:22:55;4.72;;;2.58;;
30173;SDS011;16985;50.814;8.530;2023-07-22T12:25:22;4.78;;;3.13;;
30173;SDS011;16985;50.814;8.530;2023-07-22T12:27:48;3.80;;;2.70;;
30173;SDS011;16985;50.814;8.530;2023-07-22T12:30:15;3.88;;;2.80;;
30173;SDS011;16985;50.814;8.530;2023-07-22T12:32:41;3.88;;;3.13;;
30173;SDS011;16985;50.814;8.530;2023-07-22T12:35:07;4.47;;;2.95;;
30173;SDS011;16985;50.814;8.530;2023-07-22T12:37:34;3.08;;;2.53;;
30173;SDS011;16985;50.814;8.530;2023-07-22T12:40:00;3.72;;;2.92;;
30173;SDS011;16985;50.814;8.530;2023-07-22T12:42:26;3.65;;;2.85;;
30173;SDS011;16985;50.814;8.530;2023-07-22T12:44:51;3.17;;;2.63;;
30173;SDS011;16985;50.814;8.530;2023-07-22T12:47:17;4.68;;;2.88;;
30173;SDS011;16985;50.814;8.530;2023-07-22T12:49:43;8.10;;;2.70;;
30173;SDS011;16985;50.814;8.530;2023-07-22T12:52:09;3.80;;;3.03;;
30173;SDS011;16985;50.814;8.530;2023-07-22T12:54:36;4.07;;;2.70;;
30173;SDS011;16985;50.814;8.530;2023-07-22T12:57:01;6.20;;;3.03;;
30173;SDS011;16985;50.814;8.530;2023-07-22T12:59:29;4.77;;;3.13;;
30173;SDS011;16985;50.814;8.530;2023-07-22T13:01:54;6.32;;;2.90;;
30173;SDS011;16985;50.814;8.530;2023-07-22T13:04:21;4.18;;;3.08;;
30173;SDS011;16985;50.814;8.530;2023-07-22T13:06:47;3.95;;;2.83;;
30173;SDS011;16985;50.814;8.530;2023-07-22T13:09:13;4.70;;;3.53;;
30173;SDS011;16985;50.814;8.530;2023-07-22T13:11:39;4.25;;;2.67;;
30173;SDS011;16985;50.814;8.530;2023-07-22T13:14:04;4.35;;;2.72;;
30173;SDS011;16985;50.814;8.530;2023-07-22T13:16:30;4.78;;;2.85;;
30173;SDS011;16985;50.814;8.530;2023-07-22T13:18:56;3.72;;;2.78;;
30173;SDS011;16985;50.814;8.530;2023-07-22T13:21:25;4.20;;;3.47;;
30173;SDS011;16985;50.814;8.530;2023-07-22T13:23:52;3.08;;;2.58;;
30173;SDS011;16985;50.814;8.530;2023-07-22T13:26:17;5.63;;;3.70;;
30173;SDS011;16985;50.814;8.530;2023-07-22T13:28:43;3.92;;;2.90;;
30173;SDS011;16985;50.814;8.530;2023-07-22T13:31:09;3.70;;;3.08;;
30173;SDS011;16985;50.814;8.530;2023-07-22T13:33:35;5.93;;;3.20;;
30173;SDS011;16985;50.814;8.530;2023-07-22T13:36:00;3.85;;;2.80;;
30173;SDS011;16985;50.814;8.530;2023-07-22T13:38:26;4.70;;;3.08;;
30173;SDS011;16985;50.814;8.530;2023-07-22T13:40:52;3.88;;;3.03;;
30173;SDS011;16985;50.814;8.530;2023-07-22T13:43:18;4.90;;;3.47;;
30173;SDS011;16985;50.814;8.530;2023-07-22T13:45:43;3.92;;;3.08;;
30173;SDS011;16985;50.814;8.530;2023-07-22T13:48:09;6.30;;;3.38;;
30173;SDS011;16985;50.814;8.530;2023-07-22T13:50:36;7.00;;;3.63;;
30173;SDS011;16985;50.814;8.530;2023-07-22T13:53:02;4.22;;;3.10;;
30173;SDS011;16985;50.814;8.530;2023-07-22T13:55:28;5.85;;;3.17;;
30173;SDS011;16985;50.814;8.530;2023-07-22T13:57:54;4.38;;;3.42;;
30173;SDS011;16985;50.814;8.530;2023-07-22T14:00:20;4.50;;;3.00;;
30173;SDS011;16985;50.814;8.530;2023-07-22T14:02:45;6.05;;;3.30;;
30173;SDS011;16985;50.814;8.530;2023-07-22T14:05:11;4.97;;;3.17;;
30173;SDS011;16985;50.814;8.530;2023-07-22T14:07:38;6.57;;;3.35;;
30173;SDS011;16985;50.814;8.530;2023-07-22T14:10:04;4.43;;;3.25;;
30173;SDS011;16985;50.814;8.530;2023-07-22T14:12:31;5.30;;;3.90;;
30173;SDS011;16985;50.814;8.530;2023-07-22T14:14:56;4.13;;;3.08;;
30173;SDS011;16985;50.814;8.530;2023-07-22T14:17:22;4.95;;;3.30;;
30173;SDS011;16985;50.814;8.530;2023-07-22T14:19:48;4.90;;;3.45;;
30173;SDS011;16985;50.814;8.530;2023-07-22T14:22:14;4.15;;;3.08;;
30173;SDS011;16985;50.814;8.530;2023-07-22T14:24:40;4.88;;;3.05;;
30173;SDS011;16985;50.814;8.530;2023-07-22T14:27:06;6.30;;;3.05;;
30173;SDS011;16985;50.814;8.530;2023-07-22T14:29:32;4.72;;;3.50;;
30173;SDS011;16985;50.814;8.530;2023-07-22T14:31:58;5.80;;;3.60;;
30173;SDS011;16985;50.814;8.530;2023-07-22T14:34:24;4.82;;;3.47;;
30173;SDS011;16985;50.814;8.530;2023-07-22T14:36:50;5.72;;;3.88;;
30173;SDS011;16985;50.814;8.530;2023-07-22T14:39:15;10.00;;;3.22;;
30173;SDS011;16985;50.814;8.530;2023-07-22T14:41:42;6.03;;;3.15;;
30173;SDS011;16985;50.814;8.530;2023-07-22T14:44:08;7.60;;;3.65;;
30173;SDS011;16985;50.814;8.530;2023-07-22T14:46:35;6.68;;;3.15;;
30173;SDS011;16985;50.814;8.530;2023-07-22T14:49:01;4.43;;;3.08;;
30173;SDS011;16985;50.814;8.530;2023-07-22T14:51:27;4.57;;;3.67;;
30173;SDS011;16985;50.814;8.530;2023-07-22T14:53:53;3.95;;;3.00;;
30173;SDS011;16985;50.814;8.530;2023-07-22T14:56:19;4.95;;;3.25;;
30173;SDS011;16985;50.814;8.530;2023-07-22T14:58:44;6.70;;;3.22;;
30173;SDS011;16985;50.814;8.530;2023-07-22T15:01:10;6.88;;;3.60;;
30173;SDS011;16985;50.814;8.530;2023-07-22T15:03:37;5.00;;;3.50;;
30173;SDS011;16985;50.814;8.530;2023-07-22T15:06:04;4.03;;;3.08;;
30173;SDS011;16985;50.814;8.530;2023-07-22T15:08:30;6.65;;;3.00;;
30173;SDS011;16985;50.814;8.530;2023-07-22T15:10:56;8.30;;;3.22;;
30173;SDS011;16985;50.814;8.530;2023-07-22T15:13:22;4.65;;;3.45;;
30173;SDS011;16985;50.814;8.530;2023-07-22T15:15:48;4.28;;;3.20;;
30173;SDS011;16985;50.814;8.530;2023-07-22T15:18:14;6.68;;;3.72;;